Time;durP1;ratioP1;P1;durP2;ratioP2;P2;SDS_P1;SDS_P2;PMS_P1;PMS_P2;Temp;Humidity;BMP_temperature;BMP_pressure;BME280_temperature;BME280_humidity;BME280_pressure;Samples;Min_cycle;Max_cycle;Signal;HPM_P1;HPM_P2
2022/03/13 00:00:28;;;;;;;26.63;19.38;;;9.80;99.90;;;;;;5039608;28;20033;-70
2022/03/13 00:02:55;;;;;;;24.85;17.40;;;9.80;99.90;;;;;;5035636;28;20025;-70
2022/03/13 00:05:22;;;;;;;23.75;16.60;;;9.80;99.90;;;;;;5040641;28;20052;-71
2022/03/13 00:07:48;;;;;;;22.58;16.90;;;9.90;99.90;;;;;;5040457;28;20033;-70
2022/03/13 00:10:19;;;;;;;25.23;16.63;;;9.90;99.90;;;;;;5044116;28;20037;-71
2022/03/13 00:12:47;;;;;;;21.80;16.67;;;9.90;99.90;;;;;;5039447;28;20036;-71
2022/03/13 00:15:14;;;;;;;26.23;17.05;;;9.90;99.90;;;;;;5042394;28;20056;-70
2022/03/13 00:17:41;;;;;;;26.45;17.77;;;9.90;99.90;;;;;;5042466;28;20469;-71
2022/03/13 00:20:08;;;;;;;24.85;17.58;;;9.90;99.90;;;;;;5041364;28;20022;-71
2022/03/13 00:22:36;;;;;;;26.77;18.02;;;9.80;99.90;;;;;;5043247;28;20025;-70
2022/03/13 00:25:08;;;;;;;29.63;20.75;;;9.90;99.90;;;;;;5043987;28;20040;-71
2022/03/13 00:27:34;;;;;;;28.77;20.70;;;9.90;99.90;;;;;;5040977;28;20568;-70
2022/03/13 00:30:01;;;;;;;27.83;20.05;;;9.80;99.90;;;;;;5041593;28;20187;-69
2022/03/13 00:32:27;;;;;;;25.85;19.08;;;9.80;99.90;;;;;;5041786;28;20117;-68
2022/03/13 00:34:53;;;;;;;25.85;18.88;;;9.80;99.90;;;;;;5041168;28;20033;-69
2022/03/13 00:37:19;;;;;;;26.08;19.52;;;9.70;99.90;;;;;;5041947;28;20025;-69
2022/03/13 00:39:47;;;;;;;28.10;20.27;;;9.80;99.90;;;;;;5038025;28;20039;-68
2022/03/13 00:42:13;;;;;;;26.80;20.98;;;9.80;99.90;;;;;;5039016;28;20036;-68
2022/03/13 00:44:39;;;;;;;30.35;22.80;;;9.80;99.90;;;;;;5040827;28;20025;-68
2022/03/13 00:47:06;;;;;;;29.88;21.30;;;9.80;99.90;;;;;;5042104;28;20033;-69
2022/03/13 00:49:32;;;;;;;33.60;23.65;;;9.70;99.90;;;;;;5043836;28;20466;-68
2022/03/13 00:52:04;;;;;;;32.47;23.88;;;9.80;99.90;;;;;;5041398;28;20526;-69
2022/03/13 00:54:30;;;;;;;30.13;23.88;;;9.70;99.90;;;;;;5033516;28;20044;-69
2022/03/13 00:56:56;;;;;;;29.92;22.95;;;9.80;99.90;;;;;;5021429;28;20124;-69
2022/03/13 00:59:22;;;;;;;30.65;23.75;;;9.80;99.90;;;;;;5040017;28;20533;-69
2022/03/13 01:01:48;;;;;;;31.05;23.42;;;9.80;99.90;;;;;;5038163;28;23216;-69
2022/03/13 01:04:14;;;;;;;31.40;23.48;;;9.90;99.90;;;;;;5043884;28;20114;-70
2022/03/13 01:06:41;;;;;;;32.97;24.42;;;9.80;99.90;;;;;;5042652;28;20501;-69
2022/03/13 01:09:07;;;;;;;28.25;21.85;;;9.80;99.90;;;;;;5045237;28;20556;-69
2022/03/13 01:11:33;;;;;;;28.63;22.33;;;9.80;99.90;;;;;;5046927;28;20096;-70
2022/03/13 01:13:58;;;;;;;28.23;23.35;;;9.80;99.90;;;;;;5043606;28;20043;-69
2022/03/13 01:16:34;;;;;;;31.15;22.35;;;9.80;99.90;;;;;;5050259;28;20037;-70
2022/03/13 01:19:00;;;;;;;31.00;21.77;;;9.80;99.90;;;;;;5042288;28;20120;-69
2022/03/13 01:21:27;;;;;;;28.60;21.05;;;9.80;99.90;;;;;;5042719;28;20121;-69
2022/03/13 01:24:16;;;;;;;28.38;20.65;;;9.70;99.90;;;;;;5047577;28;20040;-69
2022/03/13 01:26:42;;;;;;;27.63;21.10;;;9.70;99.90;;;;;;5049446;28;20539;-69
2022/03/13 01:29:13;;;;;;;27.60;20.42;;;9.70;99.90;;;;;;5042846;28;20040;-71
2022/03/13 01:31:43;;;;;;;27.92;21.38;;;9.80;99.90;;;;;;5050911;28;20120;-71
2022/03/13 01:34:25;;;;;;;29.50;19.92;;;9.80;99.90;;;;;;5048075;28;20378;-72
2022/03/13 01:36:51;;;;;;;24.83;19.23;;;9.80;99.90;;;;;;5048974;28;20037;-72
2022/03/13 01:39:17;;;;;;;29.25;19.63;;;9.80;99.90;;;;;;5049883;28;20499;-72
2022/03/13 01:41:42;;;;;;;28.23;19.65;;;9.80;99.90;;;;;;5043832;28;20033;-71
2022/03/13 01:44:08;;;;;;;25.35;19.10;;;9.80;99.90;;;;;;5049038;28;20036;-71
2022/03/13 01:46:34;;;;;;;25.75;19.13;;;9.80;99.90;;;;;;5046826;28;20018;-70
2022/03/13 01:49:05;;;;;;;23.83;18.63;;;9.80;99.90;;;;;;5063547;28;20397;-70
2022/03/13 01:51:33;;;;;;;26.65;18.55;;;9.70;99.90;;;;;;5057019;28;20040;-70
2022/03/13 01:54:02;;;;;;;30.02;19.17;;;9.70;99.90;;;;;;5049241;28;20057;-71
2022/03/13 01:56:29;;;;;;;27.02;19.38;;;9.80;99.90;;;;;;5055158;28;20389;-71
2022/03/13 01:58:56;;;;;;;24.88;18.05;;;9.70;99.90;;;;;;5049539;28;20120;-72
2022/03/13 02:01:24;;;;;;;26.08;18.17;;;9.70;99.90;;;;;;5048010;28;20025;-71
2022/03/13 02:03:50;;;;;;;27.23;18.50;;;9.70;99.90;;;;;;5050954;28;20033;-71
2022/03/13 02:06:17;;;;;;;25.38;17.52;;;9.70;99.90;;;;;;5044488;28;20025;-71
2022/03/13 02:08:47;;;;;;;24.98;18.05;;;9.80;99.90;;;;;;5052229;28;20630;-71
2022/03/13 02:11:22;;;;;;;25.65;19.13;;;9.80;99.90;;;;;;5048939;28;20116;-71
2022/03/13 02:13:49;;;;;;;26.90;18.73;;;9.80;99.90;;;;;;5047217;28;20053;-71
2022/03/13 02:16:17;;;;;;;25.58;19.20;;;9.80;99.90;;;;;;5046134;28;20025;-72
2022/03/13 02:18:53;;;;;;;28.27;21.15;;;9.80;99.90;;;;;;5046978;28;20440;-72
2022/03/13 02:21:24;;;;;;;27.77;20.60;;;9.80;99.90;;;;;;5049018;28;20033;-72
2022/03/13 02:23:49;;;;;;;26.85;19.80;;;9.80;99.90;;;;;;5052005;28;20481;-72
2022/03/13 02:26:15;;;;;;;26.75;19.35;;;9.70;99.90;;;;;;5049667;28;20059;-72
2022/03/13 02:28:51;;;;;;;34.47;21.23;;;9.70;99.90;;;;;;5046567;28;20070;-72
2022/03/13 02:31:28;;;;;;;29.10;22.02;;;9.70;99.90;;;;;;5045134;28;20043;-72
2022/03/13 02:33:54;;;;;;;31.30;22.13;;;9.70;99.90;;;;;;5047492;28;20037;-71
2022/03/13 02:36:32;;;;;;;30.73;21.85;;;9.70;99.90;;;;;;5050294;28;20033;-72
2022/03/13 02:39:06;;;;;;;28.95;20.55;;;9.70;99.90;;;;;;5053684;28;20033;-72
2022/03/13 02:41:33;;;;;;;25.58;20.98;;;9.70;99.90;;;;;;5052135;28;20025;-71
2022/03/13 02:43:59;;;;;;;26.35;19.95;;;9.70;99.90;;;;;;5055735;28;20040;-72
2022/03/13 02:46:48;;;;;;;27.98;20.30;;;9.70;99.90;;;;;;5045404;28;20451;-71
2022/03/13 02:49:19;;;;;;;26.95;19.92;;;9.70;99.90;;;;;;5044331;28;20040;-71
2022/03/13 02:51:48;;;;;;;28.20;20.42;;;9.70;99.90;;;;;;5047997;28;20124;-72
2022/03/13 02:54:15;;;;;;;26.13;20.90;;;9.70;99.90;;;;;;5050959;28;20040;-72
2022/03/13 02:56:42;;;;;;;29.08;20.73;;;9.70;99.90;;;;;;5052791;28;20036;-72
2022/03/13 02:59:10;;;;;;;25.48;19.88;;;9.70;99.90;;;;;;5048396;28;20020;-72
2022/03/13 03:01:37;;;;;;;27.27;20.52;;;9.70;99.90;;;;;;5044782;28;20465;-72
2022/03/13 03:04:04;;;;;;;25.52;20.02;;;9.70;99.90;;;;;;5048083;28;20108;-72
2022/03/13 03:06:31;;;;;;;27.83;19.50;;;9.70;99.90;;;;;;5049066;28;20075;-72
2022/03/13 03:09:01;;;;;;;27.40;18.42;;;9.70;99.90;;;;;;5052533;28;20039;-71
2022/03/13 03:11:27;;;;;;;28.35;19.90;;;9.70;99.90;;;;;;5051391;28;20059;-72
2022/03/13 03:13:52;;;;;;;26.52;19.08;;;9.70;99.90;;;;;;5046764;28;20075;-71
2022/03/13 03:16:18;;;;;;;26.30;19.13;;;9.70;99.90;;;;;;5044814;28;20082;-72
2022/03/13 03:18:45;;;;;;;27.88;20.77;;;9.60;99.90;;;;;;5048270;28;20018;-71
2022/03/13 03:21:13;;;;;;;29.80;20.45;;;9.70;99.90;;;;;;5055971;28;20068;-71
2022/03/13 03:23:39;;;;;;;30.50;20.52;;;9.70;99.90;;;;;;5056915;28;20385;-71
2022/03/13 03:26:06;;;;;;;27.77;20.45;;;9.60;99.90;;;;;;5049813;28;20075;-72
2022/03/13 03:28:34;;;;;;;28.98;20.08;;;9.70;99.90;;;;;;5046524;28;20021;-70
2022/03/13 03:31:00;;;;;;;29.83;21.98;;;9.70;99.90;;;;;;5051851;28;20041;-70
2022/03/13 03:33:27;;;;;;;27.45;19.80;;;9.60;99.90;;;;;;5046412;28;20025;-70
2022/03/13 03:35:53;;;;;;;24.52;19.05;;;9.60;99.90;;;;;;5043768;28;20108;-70
2022/03/13 03:38:19;;;;;;;26.42;20.05;;;9.60;99.90;;;;;;5045187;28;20565;-69
2022/03/13 03:40:45;;;;;;;27.05;19.85;;;9.70;99.90;;;;;;5046576;28;20117;-69
2022/03/13 03:43:11;;;;;;;26.98;19.45;;;9.70;99.90;;;;;;5045068;28;20410;-69
2022/03/13 03:45:36;;;;;;;25.50;19.33;;;9.70;99.90;;;;;;5047620;28;20021;-69
2022/03/13 03:48:02;;;;;;;29.33;19.45;;;9.70;99.90;;;;;;5042364;28;20029;-70
2022/03/13 03:50:28;;;;;;;28.85;19.98;;;9.60;99.90;;;;;;5043894;28;20048;-69
2022/03/13 03:52:57;;;;;;;29.05;20.08;;;9.70;99.90;;;;;;5046994;28;20374;-69
2022/03/13 03:55:24;;;;;;;27.05;20.23;;;9.70;99.90;;;;;;5043343;28;20052;-69
2022/03/13 03:57:50;;;;;;;29.00;21.02;;;9.70;99.90;;;;;;5047913;28;20078;-69
2022/03/13 04:00:16;;;;;;;27.48;19.55;;;9.70;99.90;;;;;;5047992;28;20055;-70
2022/03/13 04:02:43;;;;;;;27.38;18.88;;;9.70;99.90;;;;;;5053617;28;20485;-70
2022/03/13 04:05:12;;;;;;;27.33;19.13;;;9.70;99.90;;;;;;5053192;28;20048;-70
2022/03/13 04:07:38;;;;;;;27.65;20.30;;;9.70;99.90;;;;;;5053546;28;20029;-70
2022/03/13 04:10:05;;;;;;;28.45;21.17;;;9.70;99.90;;;;;;5052916;28;20040;-69
2022/03/13 04:12:32;;;;;;;29.13;21.05;;;9.60;99.90;;;;;;5051221;28;20032;-69
2022/03/13 04:14:58;;;;;;;29.98;20.85;;;9.60;99.90;;;;;;5052474;28;20075;-69
2022/03/13 04:17:24;;;;;;;30.85;20.77;;;9.60;99.90;;;;;;5052560;28;20066;-69
2022/03/13 04:19:50;;;;;;;25.75;20.05;;;9.70;99.90;;;;;;5052965;28;20032;-70
2022/03/13 04:22:16;;;;;;;27.67;20.20;;;9.60;99.90;;;;;;5052470;28;20029;-70
2022/03/13 04:24:42;;;;;;;26.80;19.02;;;9.70;99.90;;;;;;5053550;28;20033;-71
2022/03/13 04:27:08;;;;;;;26.65;19.92;;;9.60;99.90;;;;;;5052998;28;20033;-70
2022/03/13 04:29:34;;;;;;;25.58;20.33;;;9.60;99.90;;;;;;5052972;28;20132;-70
2022/03/13 04:32:02;;;;;;;27.85;19.92;;;9.60;99.90;;;;;;5052300;28;20566;-70
2022/03/13 04:34:28;;;;;;;28.05;20.92;;;9.60;99.90;;;;;;5052311;28;20029;-70
2022/03/13 04:36:54;;;;;;;21.40;14.98;;;9.60;99.90;;;;;;5053553;28;20093;-70
2022/03/13 04:39:20;;;;;;;19.13;13.48;;;9.70;99.90;;;;;;5052306;28;20024;-70
2022/03/13 04:41:46;;;;;;;20.30;13.48;;;9.90;99.90;;;;;;5052465;28;20087;-69
2022/03/13 04:44:13;;;;;;;18.40;12.65;;;9.90;99.90;;;;;;5052203;28;20083;-70
2022/03/13 04:46:39;;;;;;;18.27;11.15;;;10.10;99.90;;;;;;5052689;28;20402;-69
2022/03/13 04:49:05;;;;;;;17.33;12.23;;;10.10;99.90;;;;;;5052037;28;20033;-70
2022/03/13 04:51:31;;;;;;;22.02;12.40;;;10.10;99.90;;;;;;5052502;28;20040;-69
2022/03/13 04:53:57;;;;;;;21.70;12.38;;;10.10;99.90;;;;;;5052844;28;20400;-70
2022/03/13 04:56:22;;;;;;;21.30;12.63;;;10.20;99.90;;;;;;5052579;28;20023;-69
2022/03/13 04:58:48;;;;;;;21.67;12.88;;;10.20;99.90;;;;;;5052030;28;20508;-69
2022/03/13 05:01:14;;;;;;;19.13;13.05;;;10.10;99.90;;;;;;5051658;28;20044;-69
2022/03/13 05:03:42;;;;;;;18.80;13.23;;;10.20;99.90;;;;;;5053061;28;20033;-69
2022/03/13 05:06:08;;;;;;;22.60;14.70;;;10.10;99.90;;;;;;5051405;28;20035;-69
2022/03/13 05:08:36;;;;;;;17.95;12.57;;;10.10;99.90;;;;;;5052256;28;20021;-69
2022/03/13 05:11:04;;;;;;;18.25;12.88;;;10.10;99.90;;;;;;5052421;28;20037;-69
2022/03/13 05:13:30;;;;;;;22.08;12.98;;;10.10;99.90;;;;;;5051312;28;20076;-70
2022/03/13 05:15:57;;;;;;;16.33;12.80;;;10.10;99.90;;;;;;5050920;28;20079;-69
2022/03/13 05:18:23;;;;;;;17.83;12.40;;;10.10;99.90;;;;;;5047578;28;20447;-69
2022/03/13 05:20:49;;;;;;;20.60;12.88;;;10.20;99.90;;;;;;5052148;28;20025;-70
2022/03/13 05:23:15;;;;;;;17.52;13.02;;;10.20;99.90;;;;;;5052962;28;20029;-70
2022/03/13 05:25:41;;;;;;;19.17;12.95;;;10.10;99.90;;;;;;5052344;28;20389;-69
2022/03/13 05:28:08;;;;;;;21.38;12.73;;;10.10;99.90;;;;;;5045817;28;20481;-70
2022/03/13 05:30:35;;;;;;;20.17;12.75;;;10.10;99.90;;;;;;5040197;28;20035;-71
2022/03/13 05:33:01;;;;;;;18.10;12.30;;;10.20;99.90;;;;;;5049238;28;20448;-71
2022/03/13 05:35:27;;;;;;;20.17;12.65;;;10.10;99.90;;;;;;5044151;28;20029;-72
2022/03/13 05:37:53;;;;;;;20.70;13.10;;;10.20;99.90;;;;;;5043405;28;20025;-72
2022/03/13 05:40:20;;;;;;;19.58;12.23;;;10.20;99.90;;;;;;5044586;28;20029;-71
2022/03/13 05:42:50;;;;;;;21.88;13.73;;;10.20;99.90;;;;;;5046895;28;20029;-71
2022/03/13 05:45:20;;;;;;;18.52;12.35;;;10.20;99.90;;;;;;5045479;28;20025;-71
2022/03/13 05:47:48;;;;;;;19.67;13.43;;;10.20;99.90;;;;;;5046839;28;20028;-72
2022/03/13 05:50:15;;;;;;;18.05;12.70;;;10.20;99.90;;;;;;5047557;28;20044;-71
2022/03/13 05:52:41;;;;;;;16.45;11.60;;;10.20;99.90;;;;;;5043794;28;20060;-72
2022/03/13 05:55:09;;;;;;;16.38;11.25;;;10.20;99.90;;;;;;5048058;28;20118;-72
2022/03/13 05:57:35;;;;;;;17.85;11.30;;;10.20;99.90;;;;;;5047274;28;20025;-71
2022/03/13 06:00:02;;;;;;;18.48;12.27;;;10.20;99.90;;;;;;5047402;28;20026;-72
2022/03/13 06:02:28;;;;;;;18.52;12.32;;;10.20;99.90;;;;;;5052155;28;20048;-72
2022/03/13 06:04:54;;;;;;;16.13;11.80;;;10.20;99.90;;;;;;5047306;28;20056;-72
2022/03/13 06:07:20;;;;;;;21.17;11.32;;;10.20;99.90;;;;;;5046356;28;20036;-71
2022/03/13 06:09:46;;;;;;;19.17;11.30;;;10.10;99.90;;;;;;5046841;28;20017;-72
2022/03/13 06:12:13;;;;;;;18.40;11.68;;;10.10;99.90;;;;;;5047398;28;20132;-72
2022/03/13 06:14:41;;;;;;;17.13;11.40;;;10.10;99.90;;;;;;5050401;28;20041;-72
2022/03/13 06:17:07;;;;;;;18.27;11.55;;;10.20;99.90;;;;;;5048898;28;20032;-72
2022/03/13 06:19:34;;;;;;;16.42;11.27;;;10.20;99.90;;;;;;5046273;28;20036;-72
2022/03/13 06:22:00;;;;;;;16.75;11.00;;;10.20;99.90;;;;;;5046641;28;20427;-72
2022/03/13 06:24:26;;;;;;;17.48;10.85;;;10.20;99.90;;;;;;5045392;28;20037;-72
2022/03/13 06:26:52;;;;;;;17.48;12.20;;;10.20;99.90;;;;;;5049551;28;20064;-71
2022/03/13 06:29:18;;;;;;;17.00;11.10;;;10.20;99.90;;;;;;5052430;28;20025;-70
2022/03/13 06:31:44;;;;;;;17.63;11.38;;;10.20;99.90;;;;;;5049788;28;20036;-70
2022/03/13 06:34:09;;;;;;;15.63;11.10;;;10.20;99.90;;;;;;5049715;28;20036;-69
2022/03/13 06:36:37;;;;;;;16.33;11.25;;;10.20;99.90;;;;;;5047605;28;20055;-70
2022/03/13 06:39:04;;;;;;;16.98;10.85;;;10.20;99.90;;;;;;5047634;28;20031;-70
2022/03/13 06:41:31;;;;;;;17.17;11.65;;;10.20;99.90;;;;;;5051632;28;20128;-70
2022/03/13 06:43:56;;;;;;;17.35;11.02;;;10.20;99.90;;;;;;5047302;28;20103;-69
2022/03/13 06:46:22;;;;;;;15.98;10.98;;;10.20;99.90;;;;;;5047298;28;20173;-69
2022/03/13 06:48:49;;;;;;;16.20;10.63;;;10.20;99.90;;;;;;5047703;28;20564;-70
2022/03/13 06:51:14;;;;;;;18.77;11.20;;;10.20;99.90;;;;;;5046415;28;20421;-70
2022/03/13 06:53:40;;;;;;;17.25;10.90;;;10.20;99.90;;;;;;5050916;28;20024;-70
2022/03/13 06:56:06;;;;;;;18.77;10.52;;;10.20;99.90;;;;;;5048132;28;20135;-69
2022/03/13 06:58:32;;;;;;;17.27;11.70;;;10.20;99.90;;;;;;5045983;28;20029;-70
2022/03/13 07:00:57;;;;;;;15.88;10.75;;;10.20;99.90;;;;;;5049975;28;20036;-69
2022/03/13 07:03:23;;;;;;;16.35;11.05;;;10.20;99.90;;;;;;5047457;28;20036;-68
2022/03/13 07:05:49;;;;;;;18.00;11.68;;;10.20;99.90;;;;;;5049759;28;20025;-70
2022/03/13 07:08:15;;;;;;;15.45;11.05;;;10.20;99.90;;;;;;5047609;28;20055;-69
2022/03/13 07:10:42;;;;;;;21.88;11.18;;;10.30;99.90;;;;;;5043353;28;20041;-70
2022/03/13 07:13:08;;;;;;;14.77;11.25;;;10.30;99.90;;;;;;5048105;28;20025;-68
2022/03/13 07:15:34;;;;;;;19.67;10.70;;;10.30;99.90;;;;;;5048298;28;20036;-68
2022/03/13 07:17:59;;;;;;;16.50;10.45;;;10.30;99.90;;;;;;5050408;28;20394;-70
2022/03/13 07:20:25;;;;;;;18.38;11.43;;;10.30;99.90;;;;;;5052801;28;20021;-69
2022/03/13 07:22:51;;;;;;;18.10;11.88;;;10.30;99.90;;;;;;5047790;28;20035;-72
2022/03/13 07:25:17;;;;;;;17.60;11.00;;;10.40;99.90;;;;;;5054024;28;20486;-76
2022/03/13 07:27:43;;;;;;;15.77;11.15;;;10.40;99.90;;;;;;5050866;28;20406;-76
2022/03/13 07:30:12;;;;;;;15.35;11.13;;;10.40;99.90;;;;;;5050444;28;20029;-70
2022/03/13 07:32:40;;;;;;;18.77;10.98;;;10.40;99.90;;;;;;5047820;28;20025;-72
2022/03/13 07:35:07;;;;;;;15.35;11.02;;;10.40;99.90;;;;;;5048952;28;20627;-73
2022/03/13 07:37:33;;;;;;;16.42;11.55;;;10.40;99.90;;;;;;5046513;28;20033;-77
2022/03/13 07:40:00;;;;;;;16.77;11.07;;;10.40;99.90;;;;;;5049622;28;20021;-72
2022/03/13 07:42:26;;;;;;;18.30;11.57;;;10.40;99.90;;;;;;5048816;28;20043;-69
2022/03/13 07:44:52;;;;;;;20.27;11.48;;;10.40;99.90;;;;;;5049766;28;20094;-74
2022/03/13 07:47:18;;;;;;;18.73;11.00;;;10.40;99.90;;;;;;5054097;28;20032;-73
2022/03/13 07:49:44;;;;;;;17.95;11.70;;;10.40;99.90;;;;;;5039156;28;20385;-70
2022/03/13 07:52:10;;;;;;;16.77;10.80;;;10.40;99.90;;;;;;5049821;28;20037;-72
2022/03/13 07:54:36;;;;;;;18.73;11.70;;;10.40;99.90;;;;;;5047123;28;20076;-70
2022/03/13 07:57:02;;;;;;;19.52;12.32;;;10.40;99.90;;;;;;5047270;28;20454;-71
2022/03/13 07:59:28;;;;;;;16.40;11.23;;;10.40;99.90;;;;;;5047031;28;20025;-70
2022/03/13 08:01:54;;;;;;;18.65;11.40;;;10.40;99.90;;;;;;5045446;28;20037;-70
2022/03/13 08:04:20;;;;;;;19.30;12.00;;;10.40;99.90;;;;;;5042730;28;20083;-70
2022/03/13 08:06:46;;;;;;;19.50;12.45;;;10.50;99.90;;;;;;5045192;28;20086;-72
2022/03/13 08:09:12;;;;;;;19.10;11.50;;;10.50;99.90;;;;;;5045623;28;20036;-69
2022/03/13 08:11:38;;;;;;;18.77;12.57;;;10.60;99.90;;;;;;5049461;28;20048;-70
2022/03/13 08:14:07;;;;;;;18.70;11.95;;;10.50;99.90;;;;;;5044220;28;20045;-72
2022/03/13 08:16:32;;;;;;;16.75;11.45;;;10.50;99.90;;;;;;5043367;28;20037;-69
2022/03/13 08:18:58;;;;;;;18.05;12.48;;;10.50;99.90;;;;;;5047021;28;20041;-68
2022/03/13 08:21:24;;;;;;;17.83;11.27;;;10.60;99.90;;;;;;5049054;28;20032;-68
2022/03/13 08:23:50;;;;;;;18.15;11.90;;;10.60;99.90;;;;;;5043764;28;20072;-67
2022/03/13 08:26:15;;;;;;;21.48;11.10;;;10.70;99.90;;;;;;5053078;28;20037;-67
2022/03/13 08:28:42;;;;;;;22.70;12.30;;;10.70;99.90;;;;;;5041976;28;20438;-66
2022/03/13 08:31:08;;;;;;;15.77;10.63;;;10.70;99.90;;;;;;5044477;28;20037;-66
2022/03/13 08:33:34;;;;;;;16.60;11.25;;;10.70;99.90;;;;;;5048538;28;20413;-66
2022/03/13 08:36:00;;;;;;;17.63;10.85;;;10.70;99.90;;;;;;5044574;28;20029;-66
2022/03/13 08:38:26;;;;;;;16.73;10.70;;;10.80;99.90;;;;;;5044362;28;20543;-65
2022/03/13 08:40:52;;;;;;;18.85;11.02;;;10.80;99.90;;;;;;5043529;28;20116;-65
2022/03/13 08:43:18;;;;;;;17.70;10.95;;;10.90;99.90;;;;;;5045271;28;20057;-65
2022/03/13 08:45:44;;;;;;;17.30;11.18;;;10.90;99.90;;;;;;5049268;28;20056;-65
2022/03/13 08:48:10;;;;;;;15.75;10.77;;;10.90;99.90;;;;;;5046693;28;20059;-64
2022/03/13 08:50:36;;;;;;;23.77;10.93;;;10.90;99.90;;;;;;5042813;28;20044;-68
2022/03/13 08:53:02;;;;;;;17.33;10.90;;;10.90;99.90;;;;;;5044511;28;20056;-66
2022/03/13 08:55:28;;;;;;;15.30;10.80;;;11.00;99.90;;;;;;5043713;28;20100;-66
2022/03/13 08:57:54;;;;;;;19.33;10.77;;;11.00;99.90;;;;;;5050064;28;20040;-67
2022/03/13 09:00:21;;;;;;;19.15;10.98;;;11.00;99.90;;;;;;5059364;28;20421;-67
2022/03/13 09:02:47;;;;;;;16.58;9.98;;;11.00;99.90;;;;;;5040440;28;20035;-69
2022/03/13 09:05:13;;;;;;;18.50;10.48;;;11.10;99.90;;;;;;5047697;28;20397;-68
2022/03/13 09:07:39;;;;;;;20.65;9.93;;;11.10;99.90;;;;;;5043359;28;20025;-66
2022/03/13 09:10:07;;;;;;;20.60;10.30;;;11.10;99.90;;;;;;5045583;28;20025;-67
2022/03/13 09:12:35;;;;;;;14.27;9.55;;;11.10;99.90;;;;;;5043879;28;20034;-66
2022/03/13 09:15:02;;;;;;;19.63;9.88;;;11.10;99.90;;;;;;5049642;28;20037;-66
2022/03/13 09:17:28;;;;;;;16.85;10.18;;;11.10;99.90;;;;;;5049855;28;20025;-65
2022/03/13 09:19:56;;;;;;;17.63;10.23;;;11.10;99.90;;;;;;5044366;28;20047;-67
2022/03/13 09:22:30;;;;;;;19.15;10.07;;;11.10;99.90;;;;;;5043663;28;20025;-66
2022/03/13 09:24:57;;;;;;;17.17;10.05;;;11.10;99.90;;;;;;5044553;28;20029;-65
2022/03/13 09:27:27;;;;;;;17.92;10.40;;;11.10;99.90;;;;;;5045735;28;20033;-66
2022/03/13 09:29:57;;;;;;;16.50;9.75;;;11.10;99.90;;;;;;5049707;28;20036;-68
2022/03/13 09:32:26;;;;;;;20.13;10.43;;;11.10;99.90;;;;;;5046852;28;20068;-67
2022/03/13 09:34:53;;;;;;;20.52;10.18;;;11.10;99.90;;;;;;5043376;28;20527;-68
2022/03/13 09:37:20;;;;;;;20.27;9.65;;;11.10;99.90;;;;;;5042773;28;20036;-67
2022/03/13 09:39:46;;;;;;;19.17;9.98;;;11.20;99.90;;;;;;5042584;28;20576;-67
2022/03/13 09:42:12;;;;;;;18.48;10.65;;;11.20;99.90;;;;;;5046469;28;20124;-67
2022/03/13 09:44:38;;;;;;;18.15;10.60;;;11.20;99.90;;;;;;5048779;28;20029;-68
2022/03/13 09:47:05;;;;;;;24.45;10.85;;;11.20;99.90;;;;;;5044219;28;20040;-68
2022/03/13 09:49:32;;;;;;;17.13;9.25;;;11.30;99.90;;;;;;5042955;28;20031;-68
2022/03/13 09:51:59;;;;;;;18.42;9.45;;;11.30;99.90;;;;;;5043239;28;20037;-68
2022/03/13 09:54:25;;;;;;;19.88;9.60;;;11.30;99.90;;;;;;5043973;28;20033;-68
2022/03/13 09:56:50;;;;;;;20.05;9.65;;;11.30;99.90;;;;;;5049312;28;20574;-69
2022/03/13 09:59:16;;;;;;;19.50;10.35;;;11.30;99.90;;;;;;5046509;28;20477;-67
2022/03/13 10:01:42;;;;;;;16.83;8.80;;;11.30;99.90;;;;;;5041402;28;20350;-68
2022/03/13 10:04:07;;;;;;;17.15;8.77;;;11.30;99.90;;;;;;5048789;28;20033;-69
2022/03/13 10:07:07;;;;;;;15.65;8.90;;;11.30;99.90;;;;;;5049082;28;20025;-69
2022/03/13 10:09:33;;;;;;;18.13;9.80;;;11.30;99.90;;;;;;5045940;28;20038;-67
2022/03/13 10:12:17;;;;;;;17.90;8.50;;;11.40;99.90;;;;;;5051950;28;20045;-68
2022/03/13 10:15:01;;;;;;;13.02;8.05;;;11.30;99.90;;;;;;5051898;28;20053;-68
2022/03/13 10:17:29;;;;;;;16.77;8.75;;;11.40;99.90;;;;;;5050104;28;20028;-68
2022/03/13 10:20:11;;;;;;;17.52;8.32;;;11.30;99.90;;;;;;5056074;28;20021;-67
2022/03/13 10:22:37;;;;;;;12.90;8.35;;;11.30;99.90;;;;;;5044378;28;20025;-68
2022/03/13 10:25:03;;;;;;;18.55;8.38;;;11.30;99.90;;;;;;5052952;28;20404;-69
2022/03/13 10:27:32;;;;;;;18.80;9.02;;;11.30;99.90;;;;;;5052975;28;20057;-68
2022/03/13 10:30:00;;;;;;;18.33;8.25;;;11.40;99.90;;;;;;5051047;28;20095;-65
2022/03/13 10:32:26;;;;;;;18.25;9.05;;;11.30;99.90;;;;;;5046369;28;20610;-66
2022/03/13 10:34:54;;;;;;;20.83;8.80;;;11.20;99.90;;;;;;5054925;28;20116;-66
2022/03/13 10:37:40;;;;;;;13.27;7.78;;;11.20;99.90;;;;;;5050024;28;20029;-66
2022/03/13 10:40:22;;;;;;;19.30;8.90;;;11.10;99.90;;;;;;5052569;28;20104;-65
2022/03/13 10:42:50;;;;;;;16.48;8.23;;;11.10;99.90;;;;;;5055245;28;20052;-66
2022/03/13 10:45:39;;;;;;;16.95;8.40;;;11.00;99.90;;;;;;5050036;28;20087;-67
2022/03/13 10:48:28;;;;;;;19.13;8.23;;;11.10;99.90;;;;;;5050399;28;20045;-65
2022/03/13 10:50:57;;;;;;;19.10;8.55;;;11.10;99.90;;;;;;5050608;28;20033;-65
2022/03/13 10:53:23;;;;;;;15.05;8.50;;;11.20;99.90;;;;;;5054906;28;20029;-65
2022/03/13 10:56:04;;;;;;;19.90;9.73;;;11.20;99.90;;;;;;5048122;28;20497;-66
2022/03/13 10:58:31;;;;;;;16.90;8.32;;;11.20;99.90;;;;;;5064145;28;20032;-67
2022/03/13 11:01:06;;;;;;;18.52;8.43;;;11.20;99.90;;;;;;5052929;28;20047;-65
2022/03/13 11:03:34;;;;;;;13.40;7.78;;;11.20;99.90;;;;;;5053495;28;20485;-67
2022/03/13 11:06:00;;;;;;;16.35;8.73;;;11.20;99.90;;;;;;5054078;28;20047;-66
2022/03/13 11:08:26;;;;;;;16.27;9.73;;;11.20;99.90;;;;;;5053714;28;20035;-67
2022/03/13 11:10:55;;;;;;;17.40;7.80;;;11.30;99.90;;;;;;5053005;28;20037;-67
2022/03/13 11:13:25;;;;;;;18.90;8.85;;;11.30;99.90;;;;;;5052363;28;20043;-66
2022/03/13 11:15:55;;;;;;;17.98;8.32;;;11.40;99.90;;;;;;5052139;28;20039;-66
2022/03/13 11:18:24;;;;;;;19.77;9.00;;;11.40;99.90;;;;;;5053302;28;20059;-66
2022/03/13 11:20:50;;;;;;;20.63;8.57;;;11.40;99.90;;;;;;5052961;28;20497;-67
2022/03/13 11:23:17;;;;;;;16.77;9.23;;;11.40;99.90;;;;;;5053817;28;20017;-66
2022/03/13 11:25:43;;;;;;;16.60;8.10;;;11.40;99.90;;;;;;5053509;28;20104;-67
2022/03/13 11:28:09;;;;;;;16.73;8.43;;;11.30;99.90;;;;;;5051596;28;20029;-67
2022/03/13 11:30:36;;;;;;;16.42;8.98;;;11.40;99.90;;;;;;5052129;28;20036;-68
2022/03/13 11:33:02;;;;;;;16.20;9.02;;;11.30;99.90;;;;;;5053353;28;20029;-67
2022/03/13 11:35:31;;;;;;;15.32;9.38;;;11.30;99.90;;;;;;5053252;28;20025;-67
2022/03/13 11:38:06;;;;;;;16.27;8.13;;;11.30;99.90;;;;;;5053729;28;20174;-67
2022/03/13 11:40:32;;;;;;;17.48;8.13;;;11.30;99.90;;;;;;5048614;28;20025;-68
2022/03/13 11:43:33;;;;;;;17.98;9.27;;;11.30;99.90;;;;;;5052747;28;20119;-68
2022/03/13 11:46:00;;;;;;;16.42;9.30;;;11.20;99.90;;;;;;4971525;28;20093;-69
2022/03/13 11:48:25;;;;;;;15.43;9.30;;;11.10;99.90;;;;;;4966441;28;20047;-68
2022/03/13 11:51:02;;;;;;;16.88;9.05;;;11.00;99.90;;;;;;4967481;28;20092;-67
2022/03/13 11:53:30;;;;;;;18.25;9.27;;;10.80;99.90;;;;;;4971467;28;20041;-68
2022/03/13 11:56:02;;;;;;;15.60;8.82;;;10.70;99.90;;;;;;4964095;28;20034;-67
2022/03/13 11:58:43;;;;;;;16.80;9.73;;;10.70;99.90;;;;;;4970440;28;20530;-68
2022/03/13 12:01:15;;;;;;;17.38;8.80;;;10.80;99.90;;;;;;4971682;28;20031;-68
2022/03/13 12:04:09;;;;;;;15.68;8.68;;;10.90;99.90;;;;;;4963426;28;20027;-69
2022/03/13 12:06:48;;;;;;;18.40;9.27;;;11.00;99.90;;;;;;4968036;28;20038;-67
2022/03/13 12:09:16;;;;;;;18.88;9.30;;;11.10;99.90;;;;;;4963212;28;20055;-68
2022/03/13 12:11:52;;;;;;;15.45;9.20;;;11.20;99.90;;;;;;4964596;28;20116;-67
2022/03/13 12:14:19;;;;;;;16.05;8.98;;;11.20;99.90;;;;;;4971609;28;20559;-68
2022/03/13 12:16:47;;;;;;;17.13;9.32;;;11.20;99.90;;;;;;4967050;28;20114;-68
2022/03/13 12:19:19;;;;;;;16.65;9.15;;;11.20;99.90;;;;;;4967744;28;20045;-69
2022/03/13 12:21:47;;;;;;;18.38;8.75;;;11.20;99.90;;;;;;5007802;28;20510;-67
2022/03/13 12:24:14;;;;;;;19.02;8.82;;;11.10;99.90;;;;;;5052950;28;20032;-68
2022/03/13 12:26:40;;;;;;;21.80;9.48;;;11.10;99.90;;;;;;5052024;28;20037;-70
2022/03/13 12:29:08;;;;;;;16.77;9.40;;;11.10;99.90;;;;;;5053956;28;20099;-70
2022/03/13 12:31:45;;;;;;;18.80;10.30;;;11.00;99.90;;;;;;5051061;28;20432;-73
2022/03/13 12:34:12;;;;;;;19.05;9.98;;;10.60;99.90;;;;;;5050198;28;20516;-72
2022/03/13 12:36:42;;;;;;;17.20;9.35;;;10.40;99.90;;;;;;5052657;28;20021;-74